Time,TemperatureF,DewpointF,PressureIn,WindDirection,WindDirectionDegrees,WindSpeedMPH,WindSpeedGustMPH,Humidity,HourlyPrecipIn,Conditions,Clouds,dailyrainin,SoftwareType,DateUTC
2013-04-10 00:02:00,71.0,62.0,29.84,SW,218,2.0,7.0,72,66.81,,,-99.99,,2013-04-10 05:02:00,
2013-04-10 00:13:00,70.0,61.0,29.84,SSW,211,2.0,7.0,72,66.81,,,-99.99,,2013-04-10 05:13:00,
2013-04-10 00:23:00,70.0,61.0,29.84,SSW,211,2.0,7.0,72,66.81,,,-99.99,,2013-04-10 05:23:00,
2013-04-10 00:33:00,70.0,61.0,29.84,SSW,204,2.0,8.0,72,66.81,,,-99.99,,2013-04-10 05:33:00,
2013-04-10 00:42:00,70.0,61.0,29.84,SSW,204,2.0,8.0,72,66.81,,,-99.99,,2013-04-10 05:42:00,
2013-04-10 00:53:00,70.0,61.0,29.83,SSW,204,2.0,6.0,73,66.81,,,-99.99,,2013-04-10 05:53:00,
2013-04-10 01:03:00,70.0,61.0,29.82,West,263,2.0,9.0,73,66.81,,,-99.99,,2013-04-10 06:03:00,
2013-04-10 01:12:00,70.0,61.0,29.81,SW,221,2.0,8.0,74,66.81,,,-99.99,,2013-04-10 06:12:00,
2013-04-10 01:22:00,70.0,61.0,29.81,SW,221,2.0,8.0,74,66.81,,,-99.99,,2013-04-10 06:22:00,
2013-04-10 01:32:00,70.0,62.0,29.80,West,264,2.0,6.0,75,66.81,,,-99.99,,2013-04-10 06:32:00,
2013-04-10 01:42:00,70.0,62.0,29.80,West,264,2.0,6.0,75,66.81,,,-99.99,,2013-04-10 06:42:00,
2013-04-10 01:52:00,69.0,61.0,29.80,SW,229,3.0,8.0,76,66.81,,,-99.99,,2013-04-10 06:52:00,
2013-04-10 02:02:00,69.0,61.0,29.80,SW,224,1.0,5.0,77,66.81,,,-99.99,,2013-04-10 07:02:00,
2013-04-10 02:12:00,69.0,61.0,29.80,SW,224,1.0,5.0,77,66.81,,,-99.99,,2013-04-10 07:12:00,
2013-04-10 02:22:00,69.0,61.0,29.81,WNW,293,2.0,6.0,77,66.81,,,-99.99,,2013-04-10 07:22:00,
2013-04-10 02:32:00,68.0,61.0,29.80,SW,232,2.0,6.0,78,66.81,,,-99.99,,2013-04-10 07:32:00,
2013-04-10 02:42:00,68.0,61.0,29.80,SW,232,2.0,6.0,78,66.81,,,-99.99,,2013-04-10 07:42:00,
2013-04-10 02:52:00,68.0,61.0,29.80,SW,228,1.0,4.0,79,66.81,,,-99.99,,2013-04-10 07:52:00,
2013-04-10 03:02:00,68.0,61.0,29.78,NNW,336,1.0,6.0,79,66.81,,,-99.99,,2013-04-10 08:02:00,
2013-04-10 03:12:00,68.0,61.0,29.78,NNW,336,1.0,6.0,79,66.81,,,-99.99,,2013-04-10 08:12:00,
2013-04-10 03:22:00,68.0,62.0,29.79,SSW,203,1.0,5.0,80,66.81,,,-99.99,,2013-04-10 08:22:00,
2013-04-10 03:32:00,67.0,61.0,29.78,SW,231,1.0,4.0,82,66.81,,,-99.99,,2013-04-10 08:32:00,
2013-04-10 03:42:00,67.0,61.0,29.78,SW,231,1.0,4.0,82,66.81,,,-99.99,,2013-04-10 08:42:00,
2013-04-10 03:52:00,67.0,61.0,29.79,West,280,2.0,8.0,82,66.81,,,-99.99,,2013-04-10 08:52:00,
2013-04-10 04:02:00,67.0,61.0,29.78,WSW,255,2.0,7.0,82,66.81,,,-99.99,,2013-04-10 09:02:00,
2013-04-10 04:12:00,67.0,62.0,29.78,West,280,3.0,7.0,83,66.81,,,-99.99,,2013-04-10 09:12:00,
2013-04-10 04:22:00,67.0,62.0,29.78,West,280,3.0,7.0,83,66.81,,,-99.99,,2013-04-10 09:22:00,
2013-04-10 04:32:00,67.0,62.0,29.78,West,259,3.0,7.0,83,66.81,,,-99.99,,2013-04-10 09:32:00,
2013-04-10 04:43:00,67.0,62.0,29.77,WNW,287,3.0,6.0,83,66.81,,,-99.99,,2013-04-10 09:43:00,
2013-04-10 04:53:00,67.0,62.0,29.77,WNW,287,3.0,6.0,83,66.81,,,-99.99,,2013-04-10 09:53:00,
2013-04-10 05:03:00,67.0,62.0,29.76,SSW,212,2.0,6.0,84,66.81,,,-99.99,,2013-04-10 10:03:00,
2013-04-10 05:12:00,67.0,62.0,29.75,WSW,240,3.0,5.0,84,66.81,,,-99.99,,2013-04-10 10:12:00,
2013-04-10 05:23:00,67.0,62.0,29.75,WSW,240,3.0,5.0,84,66.81,,,-99.99,,2013-04-10 10:23:00,
2013-04-10 05:33:00,67.0,62.0,29.76,SW,233,3.0,10.0,84,66.81,,,-99.99,,2013-04-10 10:33:00,
2013-04-10 05:42:00,67.0,62.0,29.76,SW,233,3.0,10.0,84,66.81,,,-99.99,,2013-04-10 10:42:00,
2013-04-10 05:52:00,67.0,62.0,29.75,NW,315,3.0,7.0,84,66.81,,,-99.99,,2013-04-10 10:52:00,
2013-04-10 06:02:00,67.0,62.0,29.75,SW,229,4.0,10.0,85,66.81,,,-99.99,,2013-04-10 11:02:00,
2013-04-10 06:12:00,67.0,62.0,29.75,SW,229,4.0,10.0,85,66.81,,,-99.99,,2013-04-10 11:12:00,
2013-04-10 06:22:00,67.0,62.0,29.75,SSW,210,4.0,9.0,85,66.81,,,-99.99,,2013-04-10 11:22:00,
2013-04-10 06:32:00,67.0,62.0,29.75,ENE,65,3.0,7.0,85,66.81,,,-99.99,,2013-04-10 11:32:00,
2013-04-10 06:42:00,67.0,62.0,29.75,ENE,65,3.0,7.0,85,66.81,,,-99.99,,2013-04-10 11:42:00,
2013-04-10 06:53:00,67.0,63.0,29.75,WSW,239,3.0,9.0,86,66.81,,,-99.99,,2013-04-10 11:53:00,
2013-04-10 07:02:00,68.0,63.0,29.76,SW,221,3.0,7.0,85,66.81,,,-99.99,,2013-04-10 12:02:00,
2013-04-10 07:12:00,68.0,63.0,29.76,SW,221,3.0,7.0,85,66.81,,,-99.99,,2013-04-10 12:12:00,
2013-04-10 07:22:00,68.0,63.0,29.76,SSW,207,4.0,14.0,85,66.81,,,-99.99,,2013-04-10 12:22:00,
2013-04-10 07:33:00,68.0,64.0,29.78,WNW,285,3.0,7.0,86,66.81,,,-99.99,,2013-04-10 12:33:00,
2013-04-10 07:42:00,68.0,64.0,29.78,WNW,285,3.0,7.0,86,66.81,,,-99.99,,2013-04-10 12:42:00,
2013-04-10 07:52:00,68.0,64.0,29.77,NNE,28,3.0,11.0,86,66.81,,,-99.99,,2013-04-10 12:52:00,
2013-04-10 08:02:00,68.0,64.0,29.78,SW,229,4.0,11.0,86,66.81,,,-99.99,,2013-04-10 13:02:00,
2013-04-10 08:12:00,68.0,64.0,29.78,SW,229,4.0,11.0,86,66.81,,,-99.99,,2013-04-10 13:12:00,
2013-04-10 08:23:00,69.0,64.0,29.78,West,264,4.0,11.0,85,66.81,,,-99.99,,2013-04-10 13:23:00,
2013-04-10 08:32:00,70.0,65.0,29.77,WSW,256,5.0,13.0,83,66.81,,,-99.99,,2013-04-10 13:32:00,
2013-04-10 08:42:00,70.0,65.0,29.77,WSW,256,5.0,13.0,83,66.81,,,-99.99,,2013-04-10 13:42:00,
2013-04-10 08:53:00,71.0,65.0,29.77,West,259,4.0,10.0,81,66.81,,,-99.99,,2013-04-10 13:53:00,
2013-04-10 09:02:00,71.0,65.0,29.77,NW,311,4.0,9.0,81,66.81,,,-99.99,,2013-04-10 14:02:00,
2013-04-10 09:12:00,71.0,65.0,29.76,SW,232,5.0,12.0,80,66.81,,,-99.99,,2013-04-10 14:12:00,
2013-04-10 09:22:00,71.0,65.0,29.76,SW,232,5.0,12.0,80,66.81,,,-99.99,,2013-04-10 14:22:00,
2013-04-10 09:32:00,73.0,65.0,29.77,West,260,5.0,18.0,77,66.81,,,-99.99,,2013-04-10 14:32:00,
2013-04-10 09:42:00,73.0,65.0,29.76,WSW,242,5.0,12.0,76,66.81,,,-99.99,,2013-04-10 14:42:00,
2013-04-10 09:52:00,73.0,65.0,29.76,WSW,242,5.0,12.0,76,66.81,,,-99.99,,2013-04-10 14:52:00,
2013-04-10 10:02:00,74.0,65.0,29.76,WNW,301,5.0,11.0,74,66.81,,,-99.99,,2013-04-10 15:02:00,
2013-04-10 10:12:00,74.0,65.0,29.76,WNW,301,5.0,11.0,74,66.81,,,-99.99,,2013-04-10 15:12:00,
2013-04-10 10:22:00,74.0,65.0,29.77,West,262,6.0,18.0,74,66.81,,,-99.99,,2013-04-10 15:22:00,
2013-04-10 10:32:00,74.0,65.0,29.78,WSW,253,5.0,18.0,74,66.81,,,-99.99,,2013-04-10 15:32:00,
2013-04-10 10:42:00,74.0,65.0,29.78,WSW,253,5.0,18.0,74,66.81,,,-99.99,,2013-04-10 15:42:00,
2013-04-10 10:52:00,65.0,58.0,29.80,NNW,345,2.0,9.0,79,66.81,,,-99.99,,2013-04-10 15:52:00,
2013-04-10 11:03:00,60.0,56.0,29.83,North,352,5.0,10.0,86,66.81,,,-99.99,,2013-04-10 16:03:00,
2013-04-10 11:13:00,60.0,56.0,29.83,North,352,5.0,10.0,86,66.81,,,-99.99,,2013-04-10 16:13:00,
2013-04-10 11:23:00,60.0,55.0,29.83,NNE,17,3.0,7.0,84,66.81,,,-99.99,,2013-04-10 16:23:00,
2013-04-10 11:32:00,59.0,56.0,29.82,NNW,342,3.0,6.0,91,66.82,,,-99.99,,2013-04-10 16:32:00,
2013-04-10 11:43:00,59.0,56.0,29.82,NNW,342,3.0,6.0,91,66.82,,,-99.99,,2013-04-10 16:43:00,
2013-04-10 11:52:00,59.0,56.0,29.81,North,4,2.0,5.0,89,66.82,,,-99.99,,2013-04-10 16:52:00,
2013-04-10 12:02:00,60.0,56.0,29.80,North,0,0.0,0.0,88,66.82,,,-99.99,,2013-04-10 17:02:00,
2013-04-10 12:12:00,61.0,58.0,29.81,North,354,0.0,3.0,89,66.82,,,-99.99,,2013-04-10 17:12:00,
2013-04-10 12:22:00,61.0,58.0,29.81,North,354,0.0,3.0,89,66.82,,,-99.99,,2013-04-10 17:22:00,
2013-04-10 12:33:00,62.0,58.0,29.79,ENE,76,0.0,2.0,88,66.82,,,-99.99,,2013-04-10 17:33:00,
2013-04-10 12:42:00,62.0,58.0,29.79,ENE,76,0.0,2.0,88,66.82,,,-99.99,,2013-04-10 17:42:00,
2013-04-10 12:52:00,61.0,57.0,29.78,North,10,3.0,5.0,88,66.82,,,-99.99,,2013-04-10 17:52:00,
2013-04-10 13:02:00,62.0,59.0,29.78,East,96,2.0,5.0,90,66.82,,,-99.99,,2013-04-10 18:02:00,
2013-04-10 13:12:00,62.0,59.0,29.78,East,96,2.0,5.0,90,66.82,,,-99.99,,2013-04-10 18:12:00,
2013-04-10 13:23:00,63.0,59.0,29.77,North,0,0.0,0.0,88,66.82,,,-99.99,,2013-04-10 18:23:00,
2013-04-10 13:33:00,64.0,60.0,29.77,North,0,0.0,0.0,86,66.82,,,-99.99,,2013-04-10 18:33:00,
2013-04-10 13:42:00,64.0,60.0,29.77,North,0,0.0,0.0,86,66.82,,,-99.99,,2013-04-10 18:42:00,
2013-04-10 13:52:00,65.0,61.0,29.76,North,6,1.0,3.0,88,66.84,,,-99.99,,2013-04-10 18:52:00,
2013-04-10 14:03:00,65.0,61.0,29.76,NNE,20,1.0,4.0,86,66.84,,,-99.99,,2013-04-10 19:03:00,
2013-04-10 14:12:00,65.0,60.0,29.76,NNE,13,2.0,5.0,85,66.84,,,-99.99,,2013-04-10 19:12:00,
2013-04-10 14:22:00,65.0,60.0,29.76,NNE,13,2.0,5.0,85,66.84,,,-99.99,,2013-04-10 19:22:00,
2013-04-10 14:33:00,60.0,57.0,29.80,NNE,18,9.0,18.0,90,66.84,,,-99.99,,2013-04-10 19:33:00,
2013-04-10 14:42:00,59.0,58.0,29.78,NNE,14,5.0,10.0,96,66.84,,,-99.99,,2013-04-10 19:42:00,
2013-04-10 14:53:00,59.0,58.0,29.78,NNE,14,5.0,10.0,96,66.84,,,-99.99,,2013-04-10 19:53:00,
2013-04-10 15:02:00,59.0,58.0,29.76,ESE,104,2.0,7.0,98,66.97,,,-99.99,,2013-04-10 20:02:00,
2013-04-10 15:12:00,59.0,59.0,29.76,NE,44,0.0,2.0,99,66.97,,,-99.99,,2013-04-10 20:12:00,
2013-04-10 15:23:00,59.0,59.0,29.76,NE,44,0.0,2.0,99,66.97,,,-99.99,,2013-04-10 20:23:00,
2013-04-10 15:33:00,60.0,60.0,29.75,ENE,72,0.0,4.0,100,66.97,,,-99.99,,2013-04-10 20:33:00,
2013-04-10 15:42:00,61.0,61.0,29.75,North,0,0.0,0.0,100,66.97,,,-99.99,,2013-04-10 20:42:00,
2013-04-10 15:52:00,61.0,61.0,29.75,North,0,0.0,0.0,100,66.97,,,-99.99,,2013-04-10 20:52:00,
2013-04-10 16:02:00,62.0,62.0,29.73,NNE,15,1.0,6.0,99,66.97,,,-99.99,,2013-04-10 21:02:00,
2013-04-10 16:12:00,65.0,64.0,29.73,North,10,3.0,7.0,98,66.97,,,-99.99,,2013-04-10 21:12:00,
2013-04-10 16:22:00,65.0,64.0,29.73,North,10,3.0,7.0,98,66.97,,,-99.99,,2013-04-10 21:22:00,
2013-04-10 16:32:00,65.0,64.0,29.73,East,100,4.0,9.0,96,66.97,,,-99.99,,2013-04-10 21:32:00,
2013-04-10 16:42:00,65.0,64.0,29.73,East,100,4.0,9.0,96,66.97,,,-99.99,,2013-04-10 21:42:00,
2013-04-10 16:53:00,64.0,63.0,29.74,NNE,14,5.0,9.0,95,66.97,,,-99.99,,2013-04-10 21:53:00,
2013-04-10 17:03:00,60.0,59.0,29.75,ESE,105,8.0,16.0,96,66.97,,,-99.99,,2013-04-10 22:03:00,
2013-04-10 17:12:00,59.0,58.0,29.75,ESE,117,6.0,11.0,97,66.97,,,-99.99,,2013-04-10 22:12:00,
2013-04-10 17:23:00,59.0,58.0,29.75,ESE,117,6.0,11.0,97,66.97,,,-99.99,,2013-04-10 22:23:00,
2013-04-10 17:33:00,55.0,54.0,29.74,East,94,11.0,20.0,96,66.97,,,-99.99,,2013-04-10 22:33:00,
2013-04-10 17:42:00,55.0,54.0,29.74,East,94,11.0,20.0,96,66.97,,,-99.99,,2013-04-10 22:42:00,
2013-04-10 17:53:00,52.0,51.0,29.78,NNW,336,9.0,15.0,97,66.97,,,-99.99,,2013-04-10 22:53:00,
2013-04-10 18:02:00,49.0,48.0,29.80,NNW,345,12.0,24.0,97,66.97,,,-99.99,,2013-04-10 23:02:00,
2013-04-10 18:12:00,47.0,47.0,29.80,East,98,8.0,17.0,100,67.15,,,-99.99,,2013-04-10 23:12:00,
2013-04-10 18:22:00,47.0,47.0,29.80,East,98,8.0,17.0,100,67.15,,,-99.99,,2013-04-10 23:22:00,
2013-04-10 18:32:00,46.0,46.0,29.77,East,98,9.0,18.0,100,67.31,,,-99.99,,2013-04-10 23:32:00,
2013-04-10 18:42:00,46.0,46.0,29.77,East,98,9.0,18.0,100,67.31,,,-99.99,,2013-04-10 23:42:00,
2013-04-10 18:53:00,47.0,47.0,29.75,East,101,8.0,13.0,100,67.31,,,-99.99,,2013-04-10 23:53:00,
2013-04-10 19:02:00,48.0,48.0,29.71,East,83,8.0,18.0,100,67.31,,,-99.99,,2013-04-11 00:02:00,
2013-04-10 19:12:00,49.0,49.0,29.72,ESE,104,6.0,10.0,100,67.31,,,-99.99,,2013-04-11 00:12:00,
2013-04-10 19:22:00,49.0,49.0,29.72,ESE,104,6.0,10.0,100,67.31,,,-99.99,,2013-04-11 00:22:00,
2013-04-10 19:32:00,50.0,50.0,29.73,East,89,4.0,11.0,100,67.33,,,-99.99,,2013-04-11 00:32:00,
2013-04-10 19:42:00,51.0,51.0,29.72,ESE,103,2.0,6.0,100,67.37,,,-99.99,,2013-04-11 00:42:00,
2013-04-10 19:53:00,51.0,51.0,29.72,ESE,103,2.0,6.0,100,67.37,,,-99.99,,2013-04-11 00:53:00,
2013-04-10 20:02:00,51.0,51.0,29.72,ENE,76,5.0,12.0,100,67.37,,,-99.99,,2013-04-11 01:02:00,
2013-04-10 20:12:00,51.0,51.0,29.70,East,100,4.0,10.0,100,67.37,,,-99.99,,2013-04-11 01:12:00,
2013-04-10 20:22:00,51.0,51.0,29.70,East,100,4.0,10.0,100,67.37,,,-99.99,,2013-04-11 01:22:00,
2013-04-10 20:32:00,52.0,52.0,29.69,East,96,5.0,15.0,100,67.37,,,-99.99,,2013-04-11 01:32:00,
2013-04-10 20:42:00,52.0,52.0,29.68,ESE,117,3.0,8.0,100,67.37,,,-99.99,,2013-04-11 01:42:00,
2013-04-10 20:52:00,52.0,52.0,29.68,ESE,117,3.0,8.0,100,67.37,,,-99.99,,2013-04-11 01:52:00,
2013-04-10 21:02:00,52.0,52.0,29.69,SSE,153,3.0,8.0,100,67.37,,,-99.99,,2013-04-11 02:02:00,
2013-04-10 21:12:00,53.0,53.0,29.69,SE,136,4.0,11.0,100,67.37,,,-99.99,,2013-04-11 02:12:00,
2013-04-10 21:22:00,53.0,53.0,29.69,SE,136,4.0,11.0,100,67.37,,,-99.99,,2013-04-11 02:22:00,
2013-04-10 21:32:00,53.0,53.0,29.68,SSE,166,3.0,8.0,100,67.37,,,-99.99,,2013-04-11 02:32:00,
2013-04-10 21:42:00,53.0,53.0,29.68,SSE,166,3.0,8.0,100,67.37,,,-99.99,,2013-04-11 02:42:00,
2013-04-10 21:53:00,54.0,54.0,29.68,SSE,162,3.0,8.0,100,67.37,,,-99.99,,2013-04-11 02:53:00,
2013-04-10 22:02:00,54.0,54.0,29.66,SSE,160,3.0,7.0,100,67.37,,,-99.99,,2013-04-11 03:02:00,
2013-04-10 22:12:00,54.0,54.0,29.66,SSW,195,1.0,6.0,100,67.37,,,-99.99,,2013-04-11 03:12:00,
2013-04-10 22:22:00,54.0,54.0,29.66,SSW,195,1.0,6.0,100,67.37,,,-99.99,,2013-04-11 03:22:00,
2013-04-10 22:33:00,55.0,55.0,29.64,SSE,152,4.0,10.0,100,67.37,,,-99.99,,2013-04-11 03:33:00,
2013-04-10 22:43:00,55.0,55.0,29.63,South,170,2.0,8.0,100,67.37,,,-99.99,,2013-04-11 03:43:00,
2013-04-10 22:53:00,55.0,55.0,29.63,South,170,2.0,8.0,100,67.37,,,-99.99,,2013-04-11 03:53:00,
2013-04-10 23:03:00,55.0,55.0,29.63,SSE,149,3.0,10.0,100,67.38,,,-99.99,,2013-04-11 04:03:00,
2013-04-10 23:12:00,56.0,56.0,29.62,SSE,160,2.0,8.0,100,67.41,,,-99.99,,2013-04-11 04:12:00,
2013-04-10 23:22:00,56.0,56.0,29.62,SSE,160,2.0,8.0,100,67.41,,,-99.99,,2013-04-11 04:22:00,
2013-04-10 23:33:00,57.0,57.0,29.65,NW,316,1.0,4.0,100,67.43,,,-99.99,,2013-04-11 04:33:00,
2013-04-10 23:42:00,57.0,57.0,29.65,NW,316,1.0,4.0,100,67.43,,,-99.99,,2013-04-11 04:42:00,
2013-04-10 23:53:00,57.0,57.0,29.71,WNW,291,4.0,10.0,100,67.55,,,-99.99,,2013-04-11 04:53:00,